Time;durP1;ratioP1;P1;durP2;ratioP2;P2;SDS_P1;SDS_P2;PMS_P1;PMS_P2;Temp;Humidity;BMP_temperature;BMP_pressure;BME280_temperature;BME280_humidity;BME280_pressure;Samples;Min_cycle;Max_cycle;Signal;HPM_P1;HPM_P2
2023/06/21 00:00:17;;;;;;;5.80;5.40;;;;;;;;;;2080456;28;20033;-65
2023/06/21 00:01:38;;;;;;;6.50;6.10;;;;;;;;;;2078947;28;20418;-65
2023/06/21 00:03:00;;;;;;;5.95;5.55;;;;;;;;;;2088628;28;20037;-66
2023/06/21 00:04:19;;;;;;;5.55;5.15;;;;;;;;;;2093956;28;20438;-66
2023/06/21 00:05:38;;;;;;;5.88;5.43;;;;;;;;;;2091270;28;20067;-68
2023/06/21 00:06:57;;;;;;;6.85;6.28;;;;;;;;;;2092374;28;20632;-67
2023/06/21 00:08:16;;;;;;;6.28;5.88;;;;;;;;;;2092430;28;20029;-66
2023/06/21 00:09:35;;;;;;;6.70;6.20;;;;;;;;;;2085091;28;20120;-65
2023/06/21 00:10:54;;;;;;;6.20;5.60;;;;;;;;;;2091720;28;20040;-68
2023/06/21 00:12:14;;;;;;;5.82;5.53;;;;;;;;;;2091299;28;21198;-66
2023/06/21 00:13:33;;;;;;;6.28;5.85;;;;;;;;;;2092963;28;20029;-66
2023/06/21 00:14:52;;;;;;;6.25;5.75;;;;;;;;;;2092000;28;20036;-67
2023/06/21 00:16:13;;;;;;;6.55;6.03;;;;;;;;;;2092092;28;20029;-65
2023/06/21 00:17:32;;;;;;;6.45;6.05;;;;;;;;;;2083210;28;20056;-66
2023/06/21 00:18:51;;;;;;;6.40;6.00;;;;;;;;;;2084234;28;20020;-65
2023/06/21 00:20:10;;;;;;;6.68;6.18;;;;;;;;;;2090410;28;20494;-63
2023/06/21 00:21:29;;;;;;;6.20;5.78;;;;;;;;;;2091789;28;20037;-68
2023/06/21 00:22:55;;;;;;;5.93;5.53;;;;;;;;;;2093051;28;20057;-67
2023/06/21 00:24:14;;;;;;;7.13;6.40;;;;;;;;;;2091673;28;20064;-65
2023/06/21 00:25:33;;;;;;;5.93;5.47;;;;;;;;;;2092405;28;20032;-66
2023/06/21 00:26:53;;;;;;;6.70;6.30;;;;;;;;;;2091898;28;20111;-65
2023/06/21 00:28:12;;;;;;;6.35;5.75;;;;;;;;;;2094212;28;20033;-66
2023/06/21 00:29:31;;;;;;;6.80;6.18;;;;;;;;;;2091974;28;20369;-66
2023/06/21 00:30:50;;;;;;;7.13;6.63;;;;;;;;;;2091614;28;20466;-66
2023/06/21 00:32:09;;;;;;;6.70;6.30;;;;;;;;;;2093368;28;20033;-66
2023/06/21 00:33:28;;;;;;;7.97;7.38;;;;;;;;;;2092375;28;20028;-67
2023/06/21 00:34:47;;;;;;;6.97;6.45;;;;;;;;;;2093044;28;20115;-67
2023/06/21 00:36:05;;;;;;;6.80;6.30;;;;;;;;;;2083101;28;20029;-65
2023/06/21 00:37:26;;;;;;;7.25;6.60;;;;;;;;;;2088052;28;20483;-68
2023/06/21 00:38:46;;;;;;;7.15;6.63;;;;;;;;;;2090396;28;20032;-65
2023/06/21 00:40:10;;;;;;;7.03;6.43;;;;;;;;;;2090526;28;20104;-66
2023/06/21 00:41:28;;;;;;;8.13;7.60;;;;;;;;;;2090795;28;20028;-66
2023/06/21 00:42:47;;;;;;;6.82;6.43;;;;;;;;;;2089197;28;20036;-67
2023/06/21 00:44:08;;;;;;;7.57;6.93;;;;;;;;;;2090972;28;20037;-66
2023/06/21 00:45:27;;;;;;;7.32;6.70;;;;;;;;;;2090647;28;20036;-65
2023/06/21 00:46:46;;;;;;;7.90;7.20;;;;;;;;;;2089944;28;20381;-67
2023/06/21 00:48:05;;;;;;;7.47;6.80;;;;;;;;;;2091467;28;20024;-67
2023/06/21 00:49:25;;;;;;;7.03;6.55;;;;;;;;;;2092001;28;20489;-67
2023/06/21 00:50:44;;;;;;;7.28;6.75;;;;;;;;;;2076196;28;20113;-66
2023/06/21 00:52:05;;;;;;;7.22;6.65;;;;;;;;;;2087300;28;20495;-66
2023/06/21 00:53:28;;;;;;;7.15;6.65;;;;;;;;;;2092639;28;20481;-66
2023/06/21 00:54:48;;;;;;;7.07;6.45;;;;;;;;;;2090694;28;20036;-67
2023/06/21 00:56:07;;;;;;;7.50;6.80;;;;;;;;;;2091484;28;20036;-67
2023/06/21 00:57:26;;;;;;;8.00;7.40;;;;;;;;;;2091711;28;20372;-67
2023/06/21 00:58:45;;;;;;;7.05;6.65;;;;;;;;;;2082199;28;20033;-67
2023/06/21 01:00:06;;;;;;;7.78;6.60;;;;;;;;;;2085834;28;20059;-68
2023/06/21 01:01:26;;;;;;;8.30;6.85;;;;;;;;;;2092140;28;20025;-67
2023/06/21 01:02:46;;;;;;;7.22;6.72;;;;;;;;;;2081672;28;20049;-67
2023/06/21 01:04:08;;;;;;;7.72;6.90;;;;;;;;;;2088929;28;20127;-68
2023/06/21 01:05:30;;;;;;;7.28;6.65;;;;;;;;;;2092508;28;20389;-66
2023/06/21 01:06:49;;;;;;;7.70;7.05;;;;;;;;;;2090429;28;20021;-67
2023/06/21 01:08:27;;;;;;;7.53;6.93;;;;;;;;;;2090128;28;20064;-68
2023/06/21 01:09:49;;;;;;;7.18;6.68;;;;;;;;;;2089388;28;20650;-67
2023/06/21 01:11:17;;;;;;;7.32;6.82;;;;;;;;;;2091057;28;20468;-68
2023/06/21 01:12:44;;;;;;;7.75;6.40;;;;;;;;;;2093093;28;20029;-68
2023/06/21 01:14:13;;;;;;;6.82;6.30;;;;;;;;;;2091000;28;20040;-67
2023/06/21 01:15:38;;;;;;;6.32;5.93;;;;;;;;;;2089507;28;20578;-66
2023/06/21 01:16:58;;;;;;;6.72;6.22;;;;;;;;;;2089030;28;20048;-67
2023/06/21 01:18:20;;;;;;;7.03;6.45;;;;;;;;;;2089222;28;20029;-67
2023/06/21 01:19:41;;;;;;;7.57;6.97;;;;;;;;;;2092692;28;20064;-67
2023/06/21 01:21:03;;;;;;;7.18;6.57;;;;;;;;;;2091277;28;20033;-67
2023/06/21 01:22:22;;;;;;;7.07;6.65;;;;;;;;;;2091375;28;20151;-68
2023/06/21 01:23:41;;;;;;;6.60;6.10;;;;;;;;;;2091210;28;20028;-67
2023/06/21 01:25:03;;;;;;;6.78;6.38;;;;;;;;;;2091053;28;20494;-68
2023/06/21 01:26:34;;;;;;;7.60;6.40;;;;;;;;;;2091252;28;20029;-67
2023/06/21 01:28:11;;;;;;;7.28;6.68;;;;;;;;;;2081938;28;20021;-68
2023/06/21 01:29:33;;;;;;;7.25;6.63;;;;;;;;;;2089410;28;20501;-67
2023/06/21 01:30:53;;;;;;;6.93;6.43;;;;;;;;;;2087020;28;20498;-67
2023/06/21 01:32:13;;;;;;;7.65;7.05;;;;;;;;;;2089139;28;20028;-67
2023/06/21 01:33:32;;;;;;;10.30;7.38;;;;;;;;;;2088315;28;20486;-66
2023/06/21 01:34:51;;;;;;;8.48;7.78;;;;;;;;;;2085820;28;20497;-66
2023/06/21 01:36:10;;;;;;;8.63;7.55;;;;;;;;;;2091069;28;20032;-66
2023/06/21 01:37:29;;;;;;;8.13;7.40;;;;;;;;;;2091212;28;20063;-67
2023/06/21 01:38:49;;;;;;;7.55;7.07;;;;;;;;;;2080484;28;20537;-66
2023/06/21 01:40:10;;;;;;;10.30;7.47;;;;;;;;;;2089034;28;20028;-67
2023/06/21 01:41:29;;;;;;;8.10;7.50;;;;;;;;;;2093059;28;20103;-66
2023/06/21 01:42:48;;;;;;;8.98;8.23;;;;;;;;;;2093101;28;20562;-66
2023/06/21 01:44:13;;;;;;;11.60;9.25;;;;;;;;;;2092962;28;20041;-66
2023/06/21 01:45:32;;;;;;;9.50;8.80;;;;;;;;;;2091172;28;20024;-67
2023/06/21 01:46:53;;;;;;;9.52;8.73;;;;;;;;;;2082131;28;20780;-66
2023/06/21 01:48:13;;;;;;;10.27;9.43;;;;;;;;;;2088128;28;20028;-66
2023/06/21 01:49:32;;;;;;;10.27;9.30;;;;;;;;;;2090362;28;20024;-66
2023/06/21 01:50:52;;;;;;;8.93;8.07;;;;;;;;;;2092969;28;20066;-66
2023/06/21 01:52:11;;;;;;;10.18;9.20;;;;;;;;;;2092517;28;20488;-68
2023/06/21 01:53:31;;;;;;;8.45;7.68;;;;;;;;;;2080703;28;20060;-65
2023/06/21 01:54:50;;;;;;;9.05;8.45;;;;;;;;;;2088121;28;20028;-65
2023/06/21 01:56:11;;;;;;;8.30;7.68;;;;;;;;;;2091063;28;20401;-68
2023/06/21 01:57:31;;;;;;;8.02;7.53;;;;;;;;;;2089993;28;20033;-64
2023/06/21 01:58:50;;;;;;;9.45;8.55;;;;;;;;;;2092071;28;20115;-66
2023/06/21 02:00:21;;;;;;;7.88;7.22;;;;;;;;;;2079505;28;20595;-66
2023/06/21 02:01:42;;;;;;;7.88;7.32;;;;;;;;;;2089784;28;20032;-64
2023/06/21 02:03:05;;;;;;;7.97;7.47;;;;;;;;;;2089083;28;20033;-66
2023/06/21 02:04:25;;;;;;;8.38;7.68;;;;;;;;;;2091610;28;20028;-67
2023/06/21 02:05:46;;;;;;;8.15;7.55;;;;;;;;;;2090691;28;20052;-66
2023/06/21 02:07:05;;;;;;;8.68;7.97;;;;;;;;;;2089984;28;20424;-66
2023/06/21 02:08:25;;;;;;;8.00;7.35;;;;;;;;;;2089093;28;20490;-67
2023/06/21 02:09:44;;;;;;;8.50;7.75;;;;;;;;;;2089158;28;20493;-66
2023/06/21 02:11:03;;;;;;;9.32;8.60;;;;;;;;;;2090694;28;24175;-67
2023/06/21 02:12:22;;;;;;;8.68;7.97;;;;;;;;;;2090598;28;20025;-67
2023/06/21 02:13:41;;;;;;;8.27;7.68;;;;;;;;;;2091045;28;20032;-66
2023/06/21 02:15:00;;;;;;;8.35;7.75;;;;;;;;;;2077886;28;20029;-67
2023/06/21 02:16:25;;;;;;;8.57;7.93;;;;;;;;;;2085111;28;20591;-66
2023/06/21 02:17:48;;;;;;;8.07;7.53;;;;;;;;;;2090171;28;20390;-67
2023/06/21 02:19:07;;;;;;;8.48;7.88;;;;;;;;;;2089544;28;20016;-66
2023/06/21 02:20:28;;;;;;;7.65;7.20;;;;;;;;;;2089400;28;20028;-66
2023/06/21 02:21:47;;;;;;;8.52;7.72;;;;;;;;;;2079965;28;20104;-67
2023/06/21 02:23:06;;;;;;;8.52;7.68;;;;;;;;;;2079263;28;20122;-67
2023/06/21 02:24:25;;;;;;;9.45;8.63;;;;;;;;;;2087346;28;20420;-67
2023/06/21 02:25:44;;;;;;;9.02;8.20;;;;;;;;;;2089816;28;20024;-66
2023/06/21 02:27:03;;;;;;;10.43;9.55;;;;;;;;;;2092375;28;20024;-67
2023/06/21 02:28:22;;;;;;;9.25;8.55;;;;;;;;;;2092728;28;20037;-67
2023/06/21 02:29:41;;;;;;;8.75;8.15;;;;;;;;;;2087681;28;20036;-67
2023/06/21 02:31:00;;;;;;;9.60;8.80;;;;;;;;;;2088403;28;20659;-67
2023/06/21 02:32:19;;;;;;;8.18;7.47;;;;;;;;;;2082579;28;20025;-67
2023/06/21 02:33:41;;;;;;;9.02;8.23;;;;;;;;;;2088323;28;20036;-67
2023/06/21 02:35:00;;;;;;;8.70;8.10;;;;;;;;;;2090019;28;20125;-67
2023/06/21 02:36:19;;;;;;;8.63;8.02;;;;;;;;;;2090936;28;20036;-67
2023/06/21 02:37:38;;;;;;;9.18;8.48;;;;;;;;;;2090664;28;20195;-66
2023/06/21 02:38:57;;;;;;;9.48;8.57;;;;;;;;;;2091510;28;20025;-67
2023/06/21 02:40:16;;;;;;;8.65;8.05;;;;;;;;;;2091827;28;20029;-65
2023/06/21 02:41:35;;;;;;;8.68;7.93;;;;;;;;;;2093105;28;20474;-67
2023/06/21 02:42:54;;;;;;;8.82;8.23;;;;;;;;;;2093754;28;20036;-67
2023/06/21 02:44:13;;;;;;;9.40;8.55;;;;;;;;;;2094871;28;20024;-66
2023/06/21 02:45:32;;;;;;;9.15;8.45;;;;;;;;;;2092053;28;20032;-67
2023/06/21 02:46:50;;;;;;;9.30;8.43;;;;;;;;;;2095297;28;20036;-67
2023/06/21 02:48:10;;;;;;;10.45;8.43;;;;;;;;;;2093867;28;20068;-67
2023/06/21 02:49:28;;;;;;;7.93;7.43;;;;;;;;;;2095373;28;20024;-66
2023/06/21 02:50:48;;;;;;;9.23;8.50;;;;;;;;;;2093792;28;20037;-66
2023/06/21 02:52:08;;;;;;;8.52;7.88;;;;;;;;;;2093002;28;20032;-66
2023/06/21 02:53:26;;;;;;;9.32;8.68;;;;;;;;;;2092858;28;20433;-66
2023/06/21 02:54:45;;;;;;;9.50;8.63;;;;;;;;;;2093233;28;20477;-66
2023/06/21 02:56:04;;;;;;;9.25;8.35;;;;;;;;;;2091736;28;20029;-67
2023/06/21 02:57:23;;;;;;;8.93;8.20;;;;;;;;;;2092598;28;20509;-67
2023/06/21 02:58:42;;;;;;;8.57;7.95;;;;;;;;;;2093211;28;20468;-66
2023/06/21 03:00:04;;;;;;;9.30;8.70;;;;;;;;;;2091871;28;20036;-67
2023/06/21 03:01:23;;;;;;;9.00;8.27;;;;;;;;;;2084105;28;20493;-64
2023/06/21 03:02:44;;;;;;;10.57;9.00;;;;;;;;;;2089091;28;20032;-67
2023/06/21 03:04:03;;;;;;;10.48;9.50;;;;;;;;;;2094933;28;20145;-67
2023/06/21 03:05:22;;;;;;;9.15;8.45;;;;;;;;;;2093602;28;20025;-66
2023/06/21 03:06:41;;;;;;;10.60;9.60;;;;;;;;;;2093974;28;20581;-67
2023/06/21 03:08:03;;;;;;;8.65;7.88;;;;;;;;;;2094751;28;20562;-66
2023/06/21 03:09:23;;;;;;;9.55;8.55;;;;;;;;;;2091847;28;20032;-68
2023/06/21 03:10:44;;;;;;;10.35;9.20;;;;;;;;;;2083109;28;20025;-67
2023/06/21 03:12:08;;;;;;;9.93;9.00;;;;;;;;;;2089951;28;20412;-67
2023/06/21 03:13:27;;;;;;;10.35;9.32;;;;;;;;;;2081913;28;20025;-67
2023/06/21 03:14:46;;;;;;;9.18;8.32;;;;;;;;;;2087434;28;20036;-67
2023/06/21 03:16:05;;;;;;;9.50;8.80;;;;;;;;;;2093524;28;20033;-68
2023/06/21 03:17:24;;;;;;;9.23;8.32;;;;;;;;;;2094261;28;20032;-67
2023/06/21 03:18:42;;;;;;;8.77;8.07;;;;;;;;;;2092973;28;20389;-67
2023/06/21 03:20:04;;;;;;;9.48;8.75;;;;;;;;;;2091868;28;20036;-66
2023/06/21 03:21:23;;;;;;;9.77;9.02;;;;;;;;;;2092468;28;20029;-67
2023/06/21 03:22:45;;;;;;;8.60;7.90;;;;;;;;;;2093262;28;20017;-68
2023/06/21 03:24:04;;;;;;;9.40;8.70;;;;;;;;;;2093682;28;20021;-67
2023/06/21 03:25:23;;;;;;;8.85;8.23;;;;;;;;;;2092268;28;20025;-67
2023/06/21 03:26:42;;;;;;;9.02;8.35;;;;;;;;;;2092316;28;20560;-67
2023/06/21 03:28:01;;;;;;;9.88;8.98;;;;;;;;;;2092759;28;20044;-66
2023/06/21 03:29:20;;;;;;;8.93;8.25;;;;;;;;;;2084044;28;20060;-66
2023/06/21 03:30:39;;;;;;;9.55;8.80;;;;;;;;;;2088276;28;20021;-67
2023/06/21 03:31:58;;;;;;;9.18;8.15;;;;;;;;;;2091677;28;20064;-67
2023/06/21 03:33:17;;;;;;;9.10;7.80;;;;;;;;;;2089486;28;20029;-68
2023/06/21 03:34:36;;;;;;;9.10;8.45;;;;;;;;;;2088015;28;20486;-67
2023/06/21 03:35:55;;;;;;;9.15;8.45;;;;;;;;;;2085642;28;20036;-67
2023/06/21 03:37:14;;;;;;;11.18;8.55;;;;;;;;;;2086776;28;20028;-67
2023/06/21 03:38:33;;;;;;;11.82;8.20;;;;;;;;;;2087761;28;20025;-67
2023/06/21 03:39:52;;;;;;;9.48;8.68;;;;;;;;;;2086947;28;20032;-67
2023/06/21 03:41:11;;;;;;;8.98;8.27;;;;;;;;;;2087760;28;20324;-68
2023/06/21 03:42:30;;;;;;;9.15;8.45;;;;;;;;;;2085155;28;20603;-68
2023/06/21 03:43:49;;;;;;;8.60;7.72;;;;;;;;;;2085587;28;20119;-67
2023/06/21 03:45:08;;;;;;;9.05;8.32;;;;;;;;;;2084569;28;20115;-67
2023/06/21 03:46:28;;;;;;;9.20;8.38;;;;;;;;;;2086045;28;20116;-67
2023/06/21 03:47:47;;;;;;;8.68;8.07;;;;;;;;;;2086156;28;20477;-66
2023/06/21 03:49:06;;;;;;;9.27;8.57;;;;;;;;;;2087266;28;20037;-66
2023/06/21 03:50:25;;;;;;;9.38;8.63;;;;;;;;;;2077658;28;20037;-69
2023/06/21 03:51:44;;;;;;;8.90;8.00;;;;;;;;;;2081473;28;20762;-66
2023/06/21 03:53:06;;;;;;;8.77;8.07;;;;;;;;;;2084926;28;20474;-69
2023/06/21 03:54:25;;;;;;;8.17;7.57;;;;;;;;;;2084524;28;20142;-66
2023/06/21 03:55:44;;;;;;;7.97;7.38;;;;;;;;;;2090460;28;20028;-67
2023/06/21 03:57:03;;;;;;;12.43;8.10;;;;;;;;;;2092439;28;20036;-67
2023/06/21 03:58:22;;;;;;;8.75;8.10;;;;;;;;;;2091570;28;20025;-67
2023/06/21 03:59:41;;;;;;;8.73;7.93;;;;;;;;;;2090535;28;20036;-67
2023/06/21 04:01:00;;;;;;;7.70;7.20;;;;;;;;;;2090164;28;20482;-69
2023/06/21 04:02:21;;;;;;;10.57;8.25;;;;;;;;;;2090448;28;20029;-67
2023/06/21 04:03:40;;;;;;;8.30;7.50;;;;;;;;;;2092394;28;20068;-68
2023/06/21 04:04:59;;;;;;;11.23;8.00;;;;;;;;;;2089856;28;20020;-66
2023/06/21 04:06:19;;;;;;;8.20;7.43;;;;;;;;;;2091095;28;20048;-66
2023/06/21 04:07:39;;;;;;;8.02;7.32;;;;;;;;;;2091682;28;20020;-66
2023/06/21 04:08:58;;;;;;;7.90;7.38;;;;;;;;;;2091100;28;20029;-67
2023/06/21 04:10:17;;;;;;;7.68;6.97;;;;;;;;;;2090557;28;20021;-65
2023/06/21 04:11:36;;;;;;;8.32;7.53;;;;;;;;;;2091378;28;20024;-66
2023/06/21 04:12:55;;;;;;;8.73;7.68;;;;;;;;;;2081856;28;20037;-66
2023/06/21 04:14:15;;;;;;;7.90;7.03;;;;;;;;;;2086065;28;20112;-66
2023/06/21 04:15:34;;;;;;;9.35;8.43;;;;;;;;;;2088928;28;20458;-66
2023/06/21 04:16:53;;;;;;;8.60;7.78;;;;;;;;;;2085816;28;20056;-65
2023/06/21 04:18:12;;;;;;;9.60;8.52;;;;;;;;;;2085588;28;20029;-68
2023/06/21 04:19:31;;;;;;;8.48;7.68;;;;;;;;;;2084044;28;20500;-67
2023/06/21 04:20:50;;;;;;;8.93;8.00;;;;;;;;;;2085266;28;20028;-68
2023/06/21 04:22:09;;;;;;;8.07;7.47;;;;;;;;;;2090411;28;20037;-67
2023/06/21 04:23:28;;;;;;;7.85;7.35;;;;;;;;;;2084762;28;20084;-65
2023/06/21 04:24:47;;;;;;;9.50;8.02;;;;;;;;;;2084366;28;20109;-67
2023/06/21 04:26:06;;;;;;;9.10;7.47;;;;;;;;;;2084944;28;20025;-67
2023/06/21 04:27:25;;;;;;;7.95;7.22;;;;;;;;;;2088146;28;20506;-66
2023/06/21 04:28:48;;;;;;;8.65;7.15;;;;;;;;;;2083188;28;20621;-67
2023/06/21 04:30:10;;;;;;;7.88;7.13;;;;;;;;;;2087704;28;20635;-65
2023/06/21 04:31:29;;;;;;;7.78;7.28;;;;;;;;;;2089054;28;20029;-68
2023/06/21 04:32:48;;;;;;;7.35;6.75;;;;;;;;;;2083894;28;20385;-66
2023/06/21 04:34:07;;;;;;;7.88;7.13;;;;;;;;;;2089929;28;20466;-67
2023/06/21 04:35:26;;;;;;;7.82;7.22;;;;;;;;;;2092502;28;20016;-67
2023/06/21 04:36:47;;;;;;;8.80;7.20;;;;;;;;;;2091883;28;20032;-67
2023/06/21 04:38:06;;;;;;;10.65;8.00;;;;;;;;;;2092291;28;20340;-68
2023/06/21 04:39:27;;;;;;;9.18;7.10;;;;;;;;;;2090957;28;20473;-68
2023/06/21 04:40:46;;;;;;;8.00;7.20;;;;;;;;;;2093223;28;20040;-68
2023/06/21 04:42:05;;;;;;;8.07;7.45;;;;;;;;;;2094822;28;20017;-67
2023/06/21 04:43:25;;;;;;;8.23;7.53;;;;;;;;;;2093305;28;20104;-65
2023/06/21 04:44:48;;;;;;;7.57;6.88;;;;;;;;;;2093333;28;20099;-65
2023/06/21 04:46:07;;;;;;;8.40;7.57;;;;;;;;;;2090519;28;20111;-68
2023/06/21 04:47:26;;;;;;;8.13;7.38;;;;;;;;;;2093294;28;20025;-66
2023/06/21 04:48:47;;;;;;;8.57;7.10;;;;;;;;;;2083205;28;20018;-66
2023/06/21 04:50:06;;;;;;;8.68;7.63;;;;;;;;;;2088167;28;20432;-67
2023/06/21 04:51:25;;;;;;;9.50;7.55;;;;;;;;;;2091066;28;20016;-65
2023/06/21 04:52:47;;;;;;;12.48;7.55;;;;;;;;;;2091996;28;20040;-69
2023/06/21 04:54:06;;;;;;;8.65;6.78;;;;;;;;;;2091423;28;20030;-67
2023/06/21 04:55:26;;;;;;;9.45;7.07;;;;;;;;;;2092812;28;20025;-67
2023/06/21 04:56:45;;;;;;;7.45;6.88;;;;;;;;;;2091908;28;20029;-66
2023/06/21 04:58:05;;;;;;;12.00;6.80;;;;;;;;;;2090875;28;20029;-68
2023/06/21 04:59:24;;;;;;;7.13;6.57;;;;;;;;;;2090888;28;20021;-66
2023/06/21 05:00:43;;;;;;;7.97;7.28;;;;;;;;;;2090691;28;20397;-68
2023/06/21 05:02:02;;;;;;;7.28;6.57;;;;;;;;;;2091637;28;20040;-66
2023/06/21 05:03:21;;;;;;;7.50;6.80;;;;;;;;;;2082243;28;20525;-67
2023/06/21 05:04:40;;;;;;;7.68;6.97;;;;;;;;;;2083169;28;21168;-66
2023/06/21 05:06:02;;;;;;;7.82;6.88;;;;;;;;;;2083422;28;20116;-66
2023/06/21 05:07:21;;;;;;;7.28;6.68;;;;;;;;;;2085436;28;20037;-67
2023/06/21 05:08:40;;;;;;;7.85;6.57;;;;;;;;;;2082801;28;20036;-66
2023/06/21 05:09:59;;;;;;;6.80;6.30;;;;;;;;;;2085160;28;20037;-66
2023/06/21 05:11:18;;;;;;;6.72;6.07;;;;;;;;;;2080554;28;20033;-54
2023/06/21 05:12:37;;;;;;;6.82;6.32;;;;;;;;;;2082183;28;20036;-51
2023/06/21 05:13:56;;;;;;;7.10;6.47;;;;;;;;;;2083282;28;20032;-56
2023/06/21 05:15:15;;;;;;;6.72;5.57;;;;;;;;;;2084363;28;20495;-54
2023/06/21 05:16:35;;;;;;;8.82;6.32;;;;;;;;;;2083018;28;20037;-55
2023/06/21 05:17:54;;;;;;;6.95;6.20;;;;;;;;;;2082255;28;20516;-55
2023/06/21 05:19:13;;;;;;;7.28;6.60;;;;;;;;;;2083607;28;20025;-54
2023/06/21 05:20:32;;;;;;;6.78;6.10;;;;;;;;;;2082442;28;20033;-56
2023/06/21 05:21:51;;;;;;;7.00;6.32;;;;;;;;;;2082554;28;20563;-54
2023/06/21 05:23:10;;;;;;;10.57;6.38;;;;;;;;;;2082972;28;20037;-54
2023/06/21 05:24:29;;;;;;;6.63;6.03;;;;;;;;;;2083098;28;20683;-55
2023/06/21 05:25:48;;;;;;;7.10;6.47;;;;;;;;;;2087444;28;20025;-54
2023/06/21 05:27:07;;;;;;;7.32;6.38;;;;;;;;;;2086379;28;20029;-53
2023/06/21 05:28:26;;;;;;;6.28;5.88;;;;;;;;;;2084983;28;20021;-56
2023/06/21 05:29:45;;;;;;;6.80;6.20;;;;;;;;;;2082167;28;20036;-53
2023/06/21 05:31:04;;;;;;;7.38;6.55;;;;;;;;;;2085316;28;20029;-54
2023/06/21 05:32:25;;;;;;;6.65;5.82;;;;;;;;;;2078941;28;20037;-55
2023/06/21 05:33:44;;;;;;;6.90;6.25;;;;;;;;;;2083098;28;20071;-55
2023/06/21 05:35:03;;;;;;;7.38;6.50;;;;;;;;;;2080938;28;20029;-56
2023/06/21 05:36:23;;;;;;;6.95;6.28;;;;;;;;;;2082337;28;20497;-56
2023/06/21 05:37:42;;;;;;;7.93;6.10;;;;;;;;;;2081069;28;20021;-53
2023/06/21 05:39:01;;;;;;;6.60;6.00;;;;;;;;;;2086245;28;20040;-54
2023/06/21 05:40:20;;;;;;;6.75;6.25;;;;;;;;;;2082791;28;20033;-55
2023/06/21 05:41:39;;;;;;;6.70;6.13;;;;;;;;;;2085462;28;20065;-55
2023/06/21 05:43:01;;;;;;;7.53;6.03;;;;;;;;;;2085138;28;20087;-54
2023/06/21 05:44:20;;;;;;;8.40;6.43;;;;;;;;;;2085886;28;20025;-56
2023/06/21 05:45:39;;;;;;;6.70;6.10;;;;;;;;;;2083223;28;20033;-55
2023/06/21 05:46:57;;;;;;;6.28;5.88;;;;;;;;;;2085227;28;20033;-55
2023/06/21 05:48:17;;;;;;;6.72;6.22;;;;;;;;;;2085551;28;20029;-56
2023/06/21 05:49:36;;;;;;;6.00;5.60;;;;;;;;;;2083535;28;20021;-55
2023/06/21 05:50:55;;;;;;;6.70;6.20;;;;;;;;;;2086353;28;20029;-54
2023/06/21 05:52:15;;;;;;;5.80;5.40;;;;;;;;;;2085974;28;20070;-54
2023/06/21 05:53:34;;;;;;;7.03;5.70;;;;;;;;;;2087116;28;20490;-55
2023/06/21 05:54:53;;;;;;;8.95;5.78;;;;;;;;;;2082772;28;20502;-56
2023/06/21 05:56:12;;;;;;;5.93;5.53;;;;;;;;;;2084860;28;20029;-55
2023/06/21 05:57:31;;;;;;;6.32;5.82;;;;;;;;;;2086546;28;20029;-53
2023/06/21 05:58:50;;;;;;;6.38;5.78;;;;;;;;;;2082460;28;20104;-56
2023/06/21 06:00:10;;;;;;;7.50;6.18;;;;;;;;;;2084331;28;20048;-56
2023/06/21 06:01:29;;;;;;;6.25;5.82;;;;;;;;;;2085215;28;20486;-56
2023/06/21 06:02:48;;;;;;;6.45;5.85;;;;;;;;;;2086843;28;20491;-56
2023/06/21 06:04:07;;;;;;;6.18;5.78;;;;;;;;;;2093570;28;20495;-56
2023/06/21 06:05:26;;;;;;;6.40;5.90;;;;;;;;;;2089966;28;20433;-56
2023/06/21 06:06:46;;;;;;;6.22;5.72;;;;;;;;;;2093942;28;20025;-55
2023/06/21 06:08:05;;;;;;;6.22;5.72;;;;;;;;;;2089175;28;20040;-55
2023/06/21 06:09:24;;;;;;;6.85;6.13;;;;;;;;;;2092996;28;20092;-56
2023/06/21 06:10:44;;;;;;;7.40;6.70;;;;;;;;;;2095301;28;20029;-55
2023/06/21 06:12:03;;;;;;;6.55;5.82;;;;;;;;;;2092242;28;20032;-55
2023/06/21 06:13:21;;;;;;;6.70;6.00;;;;;;;;;;2092020;28;20064;-57
2023/06/21 06:14:40;;;;;;;6.25;5.85;;;;;;;;;;2091473;28;20025;-56
2023/06/21 06:16:00;;;;;;;6.72;6.13;;;;;;;;;;2095035;28;20103;-54
2023/06/21 06:17:19;;;;;;;6.72;6.22;;;;;;;;;;2092445;28;20044;-55
2023/06/21 06:18:40;;;;;;;7.63;5.85;;;;;;;;;;2092356;28;20036;-56
2023/06/21 06:19:58;;;;;;;6.50;5.90;;;;;;;;;;2092271;28;20558;-56
2023/06/21 06:21:21;;;;;;;6.00;5.50;;;;;;;;;;2092870;28;20465;-55
2023/06/21 06:22:41;;;;;;;6.10;5.70;;;;;;;;;;2093910;28;20052;-56
2023/06/21 06:24:00;;;;;;;6.70;6.05;;;;;;;;;;2092940;28;20530;-56
2023/06/21 06:25:18;;;;;;;5.95;5.45;;;;;;;;;;2094336;28;20103;-54
2023/06/21 06:26:37;;;;;;;6.10;5.70;;;;;;;;;;2094288;28;20033;-55
2023/06/21 06:27:56;;;;;;;6.38;5.88;;;;;;;;;;2092690;28;20021;-56
2023/06/21 06:29:15;;;;;;;9.30;6.55;;;;;;;;;;2092908;28;20111;-54
2023/06/21 06:30:35;;;;;;;5.57;5.07;;;;;;;;;;2084751;28;20521;-55
2023/06/21 06:31:54;;;;;;;6.15;5.43;;;;;;;;;;2090101;28;20025;-56
2023/06/21 06:33:13;;;;;;;5.97;5.47;;;;;;;;;;2093034;28;20569;-60
2023/06/21 06:34:32;;;;;;;6.13;5.63;;;;;;;;;;2093760;28;20424;-57
2023/06/21 06:35:51;;;;;;;6.63;6.05;;;;;;;;;;2094031;28;20424;-55
2023/06/21 06:37:11;;;;;;;6.50;5.60;;;;;;;;;;2092548;28;20040;-56
2023/06/21 06:38:30;;;;;;;6.50;5.57;;;;;;;;;;2094241;28;20028;-55
2023/06/21 06:39:49;;;;;;;6.65;6.00;;;;;;;;;;2083050;28;20187;-54
2023/06/21 06:41:08;;;;;;;8.50;4.95;;;;;;;;;;2090614;28;20070;-56
2023/06/21 06:42:27;;;;;;;5.43;5.03;;;;;;;;;;2092740;28;20033;-55
2023/06/21 06:43:46;;;;;;;6.18;5.72;;;;;;;;;;2092500;28;20036;-55
2023/06/21 06:45:05;;;;;;;8.13;5.45;;;;;;;;;;2090640;28;20051;-57
2023/06/21 06:46:24;;;;;;;6.70;6.15;;;;;;;;;;2091458;28;20029;-55
2023/06/21 06:47:43;;;;;;;9.68;5.90;;;;;;;;;;2094178;28;20033;-56
2023/06/21 06:49:02;;;;;;;5.80;5.30;;;;;;;;;;2091253;28;20020;-56
2023/06/21 06:50:21;;;;;;;6.10;5.28;;;;;;;;;;2092812;28;20029;-54
2023/06/21 06:51:42;;;;;;;6.15;5.55;;;;;;;;;;2095173;28;20037;-67
2023/06/21 06:53:02;;;;;;;5.95;5.55;;;;;;;;;;2091519;28;20029;-66
2023/06/21 06:54:21;;;;;;;6.85;5.50;;;;;;;;;;2094185;28;20147;-68
2023/06/21 06:55:41;;;;;;;6.10;5.70;;;;;;;;;;2095120;28;20487;-68
2023/06/21 06:56:59;;;;;;;7.22;5.20;;;;;;;;;;2092908;28;20036;-67
2023/06/21 06:58:19;;;;;;;5.75;5.45;;;;;;;;;;2092896;28;20033;-66
2023/06/21 06:59:38;;;;;;;5.30;4.88;;;;;;;;;;2093902;28;20037;-65
2023/06/21 07:00:57;;;;;;;5.57;4.93;;;;;;;;;;2094345;28;20029;-67
2023/06/21 07:02:15;;;;;;;9.15;5.22;;;;;;;;;;2092905;28;20029;-67
2023/06/21 07:03:34;;;;;;;6.03;5.25;;;;;;;;;;2092089;28;20032;-66
2023/06/21 07:04:54;;;;;;;5.75;5.35;;;;;;;;;;2092235;28;20432;-66
2023/06/21 07:06:13;;;;;;;6.00;5.60;;;;;;;;;;2094015;28;20025;-66
2023/06/21 07:07:32;;;;;;;5.50;5.15;;;;;;;;;;2093701;28;20056;-67
2023/06/21 07:08:51;;;;;;;5.57;5.22;;;;;;;;;;2093410;28;20037;-65
2023/06/21 07:10:10;;;;;;;6.78;5.72;;;;;;;;;;2096263;28;20555;-67
2023/06/21 07:11:29;;;;;;;5.28;4.88;;;;;;;;;;2095580;28;20021;-67
2023/06/21 07:12:48;;;;;;;5.47;5.00;;;;;;;;;;2093443;28;20032;-66
2023/06/21 07:14:07;;;;;;;5.72;5.15;;;;;;;;;;2094308;28;20033;-67
2023/06/21 07:15:26;;;;;;;5.43;4.97;;;;;;;;;;2091521;28;20056;-67
2023/06/21 07:16:48;;;;;;;5.75;5.32;;;;;;;;;;2094077;28;20025;-67
2023/06/21 07:18:07;;;;;;;5.55;5.15;;;;;;;;;;2094518;28;20017;-66
2023/06/21 07:19:26;;;;;;;6.43;5.50;;;;;;;;;;2094203;28;20025;-66
2023/06/21 07:20:45;;;;;;;5.75;5.22;;;;;;;;;;2093630;28;20416;-67
2023/06/21 07:22:04;;;;;;;6.22;5.65;;;;;;;;;;2093064;28;20026;-67
2023/06/21 07:23:24;;;;;;;5.18;4.78;;;;;;;;;;2093527;28;20037;-67
2023/06/21 07:24:42;;;;;;;5.22;4.72;;;;;;;;;;2093442;28;20033;-65
2023/06/21 07:26:02;;;;;;;5.43;5.03;;;;;;;;;;2093091;28;20024;-67
2023/06/21 07:27:22;;;;;;;5.80;5.30;;;;;;;;;;2093239;28;20060;-66
2023/06/21 07:28:41;;;;;;;6.03;5.53;;;;;;;;;;2094647;28;20032;-66
2023/06/21 07:30:02;;;;;;;5.90;5.50;;;;;;;;;;2085682;28;20029;-67
2023/06/21 07:31:20;;;;;;;5.55;5.05;;;;;;;;;;2090242;28;20032;-66
2023/06/21 07:32:39;;;;;;;8.80;5.32;;;;;;;;;;2094780;28;20028;-67
2023/06/21 07:33:58;;;;;;;5.78;5.38;;;;;;;;;;2095617;28;20028;-67
2023/06/21 07:35:18;;;;;;;5.30;5.00;;;;;;;;;;2092666;28;20502;-67
2023/06/21 07:36:37;;;;;;;5.10;4.80;;;;;;;;;;2094156;28;20091;-66
2023/06/21 07:37:56;;;;;;;4.65;4.40;;;;;;;;;;2093734;28;20028;-66
2023/06/21 07:39:15;;;;;;;6.00;5.50;;;;;;;;;;2095068;28;20036;-66
2023/06/21 07:40:34;;;;;;;6.30;4.90;;;;;;;;;;2095217;28;20021;-66
2023/06/21 07:41:54;;;;;;;5.15;4.85;;;;;;;;;;2095311;28;20025;-59
2023/06/21 07:43:12;;;;;;;5.93;5.45;;;;;;;;;;2093232;28;20165;-59
2023/06/21 07:44:31;;;;;;;5.10;4.70;;;;;;;;;;2093627;28;20060;-59
2023/06/21 07:45:50;;;;;;;5.90;5.38;;;;;;;;;;2094792;28;20420;-60
2023/06/21 07:47:09;;;;;;;4.90;4.60;;;;;;;;;;2094497;28;20040;-59
2023/06/21 07:48:28;;;;;;;5.38;5.00;;;;;;;;;;2095014;28;20493;-65
2023/06/21 07:49:48;;;;;;;5.47;5.03;;;;;;;;;;2094570;28;20029;-65
2023/06/21 07:51:07;;;;;;;5.60;4.28;;;;;;;;;;2095517;28;20060;-66
2023/06/21 07:52:25;;;;;;;5.93;5.20;;;;;;;;;;2095671;28;20041;-64
2023/06/21 07:53:44;;;;;;;5.38;4.88;;;;;;;;;;2084907;28;20025;-64
2023/06/21 07:55:05;;;;;;;5.55;5.05;;;;;;;;;;2090098;28;20527;-64
2023/06/21 07:56:24;;;;;;;6.25;5.28;;;;;;;;;;2091729;28;20513;-65
2023/06/21 07:57:43;;;;;;;4.78;4.47;;;;;;;;;;2093840;28;20114;-64